sensor_id;sensor_type;location;lat;lon;timestamp;pressure;altitude;pressure_sealevel;temperature;humidity
14269;BME280;7218;51.480;7.006;2023-02-21T00:00:35;101056.38;;;10.15;100.00
14269;BME280;7218;51.480;7.006;2023-02-21T00:03:19;101061.59;;;10.15;100.00
14269;BME280;7218;51.480;7.006;2023-02-21T00:06:03;101052.94;;;10.10;100.00
14269;BME280;7218;51.480;7.006;2023-02-21T00:08:50;101057.06;;;10.46;100.00
14269;BME280;7218;51.480;7.006;2023-02-21T00:11:34;101058.88;;;10.38;100.00
14269;BME280;7218;51.480;7.006;2023-02-21T00:14:19;101060.78;;;10.00;100.00
14269;BME280;7218;51.480;7.006;2023-02-21T00:17:04;101060.69;;;10.27;100.00
14269;BME280;7218;51.480;7.006;2023-02-21T00:19:48;101056.34;;;10.21;100.00
14269;BME280;7218;51.480;7.006;2023-02-21T00:22:32;101058.97;;;10.21;100.00
14269;BME280;7218;51.480;7.006;2023-02-21T00:25:16;101063.13;;;10.56;100.00
14269;BME280;7218;51.480;7.006;2023-02-21T00:28:01;101062.59;;;9.84;100.00
14269;BME280;7218;51.480;7.006;2023-02-21T00:30:46;101065.94;;;10.12;100.00
14269;BME280;7218;51.480;7.006;2023-02-21T00:33:34;101070.28;;;10.20;100.00
14269;BME280;7218;51.480;7.006;2023-02-21T00:36:18;101070.09;;;10.55;100.00
14269;BME280;7218;51.480;7.006;2023-02-21T00:39:03;101069.34;;;10.35;100.00
14269;BME280;7218;51.480;7.006;2023-02-21T00:41:47;101065.00;;;10.32;100.00
14269;BME280;7218;51.480;7.006;2023-02-21T00:44:31;101064.97;;;10.39;100.00
14269;BME280;7218;51.480;7.006;2023-02-21T00:47:16;101063.97;;;10.56;100.00
14269;BME280;7218;51.480;7.006;2023-02-21T00:50:00;101067.44;;;10.60;100.00
14269;BME280;7218;51.480;7.006;2023-02-21T00:52:45;101065.19;;;9.84;100.00
14269;BME280;7218;51.480;7.006;2023-02-21T00:55:29;101061.72;;;9.85;100.00
14269;BME280;7218;51.480;7.006;2023-02-21T00:58:13;101046.84;;;10.16;100.00
14269;BME280;7218;51.480;7.006;2023-02-21T01:00:57;101056.53;;;9.85;100.00
14269;BME280;7218;51.480;7.006;2023-02-21T01:03:43;101049.47;;;10.08;100.00
14269;BME280;7218;51.480;7.006;2023-02-21T01:06:27;101054.75;;;9.93;100.00
14269;BME280;7218;51.480;7.006;2023-02-21T01:09:11;101042.69;;;9.69;100.00
14269;BME280;7218;51.480;7.006;2023-02-21T01:11:55;101040.94;;;9.71;100.00
14269;BME280;7218;51.480;7.006;2023-02-21T01:14:39;101044.31;;;9.93;100.00
14269;BME280;7218;51.480;7.006;2023-02-21T01:17:24;101042.69;;;9.68;100.00
14269;BME280;7218;51.480;7.006;2023-02-21T01:20:09;101037.47;;;9.68;100.00
14269;BME280;7218;51.480;7.006;2023-02-21T01:22:54;101032.19;;;9.89;100.00
14269;BME280;7218;51.480;7.006;2023-02-21T01:25:38;101036.56;;;9.76;100.00
14269;BME280;7218;51.480;7.006;2023-02-21T01:28:22;101032.06;;;10.13;100.00
14269;BME280;7218;51.480;7.006;2023-02-21T01:31:06;101024.41;;;9.84;100.00
14269;BME280;7218;51.480;7.006;2023-02-21T01:33:50;101016.53;;;9.92;100.00
14269;BME280;7218;51.480;7.006;2023-02-21T01:36:39;101023.50;;;9.87;100.00
14269;BME280;7218;51.480;7.006;2023-02-21T01:39:23;101019.81;;;10.33;100.00
14269;BME280;7218;51.480;7.006;2023-02-21T01:42:08;101028.72;;;9.84;100.00
14269;BME280;7218;51.480;7.006;2023-02-21T01:48:25;101023.31;;;10.29;100.00
14269;BME280;7218;51.480;7.006;2023-02-21T01:51:12;101021.41;;;10.51;100.00
14269;BME280;7218;51.480;7.006;2023-02-21T01:53:58;101025.06;;;10.27;100.00
14269;BME280;7218;51.480;7.006;2023-02-21T01:56:42;101025.16;;;10.05;100.00
14269;BME280;7218;51.480;7.006;2023-02-21T01:59:27;101027.63;;;10.32;100.00
14269;BME280;7218;51.480;7.006;2023-02-21T02:02:16;101027.91;;;9.76;100.00
14269;BME280;7218;51.480;7.006;2023-02-21T02:05:01;101019.91;;;10.15;100.00
14269;BME280;7218;51.480;7.006;2023-02-21T02:07:45;101021.69;;;10.03;100.00
14269;BME280;7218;51.480;7.006;2023-02-21T02:10:31;101019.19;;;9.86;100.00
14269;BME280;7218;51.480;7.006;2023-02-21T02:13:25;101022.53;;;10.09;100.00
14269;BME280;7218;51.480;7.006;2023-02-21T02:15:58;101016.53;;;9.93;100.00
14269;BME280;7218;51.480;7.006;2023-02-21T02:18:43;101022.38;;;10.40;100.00
14269;BME280;7218;51.480;7.006;2023-02-21T02:21:39;101020.63;;;10.39;100.00
14269;BME280;7218;51.480;7.006;2023-02-21T02:24:23;101028.59;;;10.11;100.00
14269;BME280;7218;51.480;7.006;2023-02-21T02:27:24;101024.09;;;10.44;100.00
14269;BME280;7218;51.480;7.006;2023-02-21T02:30:15;101018.09;;;10.31;100.00
14269;BME280;7218;51.480;7.006;2023-02-21T02:33:13;101014.59;;;10.32;100.00
14269;BME280;7218;51.480;7.006;2023-02-21T02:35:52;101011.13;;;10.31;100.00
14269;BME280;7218;51.480;7.006;2023-02-21T02:38:24;101012.06;;;10.24;100.00
14269;BME280;7218;51.480;7.006;2023-02-21T02:40:59;101008.56;;;10.25;100.00
14269;BME280;7218;51.480;7.006;2023-02-21T02:43:31;101002.53;;;10.19;100.00
14269;BME280;7218;51.480;7.006;2023-02-21T02:46:02;101005.13;;;10.13;100.00
14269;BME280;7218;51.480;7.006;2023-02-21T02:48:33;101010.50;;;9.76;100.00
14269;BME280;7218;51.480;7.006;2023-02-21T02:51:05;100999.03;;;10.14;100.00
14269;BME280;7218;51.480;7.006;2023-02-21T02:53:32;101000.00;;;9.98;100.00
14269;BME280;7218;51.480;7.006;2023-02-21T02:56:02;100997.19;;;10.39;100.00
14269;BME280;7218;51.480;7.006;2023-02-21T02:58:32;100993.91;;;9.97;100.00
14269;BME280;7218;51.480;7.006;2023-02-21T03:01:11;101001.91;;;9.58;100.00
14269;BME280;7218;51.480;7.006;2023-02-21T03:03:51;101000.16;;;9.67;100.00
14269;BME280;7218;51.480;7.006;2023-02-21T03:06:31;101006.34;;;9.40;100.00
14269;BME280;7218;51.480;7.006;2023-02-21T03:09:04;101011.47;;;9.66;100.00
14269;BME280;7218;51.480;7.006;2023-02-21T03:11:36;101002.69;;;9.84;100.00
14269;BME280;7218;51.480;7.006;2023-02-21T03:14:12;100997.50;;;9.78;100.00
14269;BME280;7218;51.480;7.006;2023-02-21T03:16:42;101003.41;;;10.21;100.00
14269;BME280;7218;51.480;7.006;2023-02-21T03:19:14;101007.94;;;9.81;100.00
14269;BME280;7218;51.480;7.006;2023-02-21T03:21:46;101017.50;;;9.76;100.00
14269;BME280;7218;51.480;7.006;2023-02-21T03:24:16;101004.47;;;9.74;100.00
14269;BME280;7218;51.480;7.006;2023-02-21T03:26:47;101012.28;;;9.67;100.00
14269;BME280;7218;51.480;7.006;2023-02-21T03:29:15;101007.75;;;10.08;100.00
14269;BME280;7218;51.480;7.006;2023-02-21T03:31:45;101005.31;;;9.79;100.00
14269;BME280;7218;51.480;7.006;2023-02-21T03:34:13;101010.50;;;9.82;100.00
14269;BME280;7218;51.480;7.006;2023-02-21T03:36:40;101003.56;;;9.84;100.00
14269;BME280;7218;51.480;7.006;2023-02-21T03:39:08;101006.09;;;9.98;100.00
14269;BME280;7218;51.480;7.006;2023-02-21T03:41:35;101005.28;;;9.85;100.00
14269;BME280;7218;51.480;7.006;2023-02-21T03:44:01;100999.19;;;9.88;100.00
14269;BME280;7218;51.480;7.006;2023-02-21T03:46:28;101008.91;;;9.48;100.00
14269;BME280;7218;51.480;7.006;2023-02-21T03:48:54;101007.16;;;9.50;100.00
14269;BME280;7218;51.480;7.006;2023-02-21T03:51:21;100998.50;;;9.42;100.00
14269;BME280;7218;51.480;7.006;2023-02-21T03:53:47;100999.25;;;9.73;100.00
14269;BME280;7218;51.480;7.006;2023-02-21T03:56:15;100994.09;;;9.64;100.00
14269;BME280;7218;51.480;7.006;2023-02-21T03:58:41;101008.00;;;9.60;100.00
14269;BME280;7218;51.480;7.006;2023-02-21T04:01:08;101000.19;;;9.57;100.00
14269;BME280;7218;51.480;7.006;2023-02-21T04:03:34;101005.41;;;9.58;100.00
14269;BME280;7218;51.480;7.006;2023-02-21T04:06:00;101000.19;;;9.60;100.00
14269;BME280;7218;51.480;7.006;2023-02-21T04:08:28;101004.53;;;9.58;100.00
14269;BME280;7218;51.480;7.006;2023-02-21T04:10:54;101005.22;;;9.99;100.00
14269;BME280;7218;51.480;7.006;2023-02-21T04:13:22;101006.09;;;9.92;100.00
14269;BME280;7218;51.480;7.006;2023-02-21T04:15:49;101015.72;;;9.76;100.00
14269;BME280;7218;51.480;7.006;2023-02-21T04:18:15;101008.69;;;9.98;100.00
14269;BME280;7218;51.480;7.006;2023-02-21T04:20:42;101010.69;;;9.34;100.00
14269;BME280;7218;51.480;7.006;2023-02-21T04:23:10;101020.25;;;9.18;100.00
14269;BME280;7218;51.480;7.006;2023-02-21T04:25:37;101012.44;;;9.29;100.00
14269;BME280;7218;51.480;7.006;2023-02-21T04:28:04;101004.53;;;9.58;100.00
14269;BME280;7218;51.480;7.006;2023-02-21T04:30:32;101004.53;;;9.51;100.00
14269;BME280;7218;51.480;7.006;2023-02-21T04:32:59;101008.00;;;9.66;100.00
14269;BME280;7218;51.480;7.006;2023-02-21T04:35:25;101006.19;;;9.80;100.00
14269;BME280;7218;51.480;7.006;2023-02-21T04:37:52;101001.91;;;9.71;100.00
14269;BME280;7218;51.480;7.006;2023-02-21T04:40:18;101005.31;;;9.81;100.00
14269;BME280;7218;51.480;7.006;2023-02-21T04:42:44;101002.72;;;9.81;100.00
14269;BME280;7218;51.480;7.006;2023-02-21T04:45:11;100996.78;;;9.39;100.00
14269;BME280;7218;51.480;7.006;2023-02-21T04:47:39;101000.16;;;9.67;100.00
14269;BME280;7218;51.480;7.006;2023-02-21T04:50:06;100996.84;;;9.18;100.00
14269;BME280;7218;51.480;7.006;2023-02-21T04:52:32;100995.13;;;9.10;100.00
14269;BME280;7218;51.480;7.006;2023-02-21T04:54:59;100989.94;;;9.05;100.00
14269;BME280;7218;51.480;7.006;2023-02-21T04:57:25;100989.00;;;9.27;100.00
14269;BME280;7218;51.480;7.006;2023-02-21T04:59:55;100987.22;;;9.49;100.00
14269;BME280;7218;51.480;7.006;2023-02-21T05:02:21;100992.41;;;9.54;100.00
14269;BME280;7218;51.480;7.006;2023-02-21T05:04:49;100985.31;;;9.84;100.00
14269;BME280;7218;51.480;7.006;2023-02-21T05:07:16;100993.31;;;9.43;100.00
14269;BME280;7218;51.480;7.006;2023-02-21T05:09:42;100986.38;;;9.45;100.00
14269;BME280;7218;51.480;7.006;2023-02-21T05:12:08;100993.34;;;9.27;100.00
14269;BME280;7218;51.480;7.006;2023-02-21T05:14:36;100991.56;;;9.44;100.00
14269;BME280;7218;51.480;7.006;2023-02-21T05:17:03;100983.69;;;9.64;100.00
14269;BME280;7218;51.480;7.006;2023-02-21T05:19:30;100989.78;;;9.60;100.00
14269;BME280;7218;51.480;7.006;2023-02-21T05:21:59;100997.56;;;9.66;100.00
14269;BME280;7218;51.480;7.006;2023-02-21T05:24:27;100994.06;;;9.71;100.00
14269;BME280;7218;51.480;7.006;2023-02-21T05:26:55;100994.88;;;9.84;100.00
14269;BME280;7218;51.480;7.006;2023-02-21T05:29:21;100994.06;;;9.76;100.00
14269;BME280;7218;51.480;7.006;2023-02-21T05:31:48;100995.81;;;9.69;100.00
14269;BME280;7218;51.480;7.006;2023-02-21T05:34:15;100994.03;;;9.80;100.00
14269;BME280;7218;51.480;7.006;2023-02-21T05:36:43;100994.91;;;9.72;100.00
14269;BME280;7218;51.480;7.006;2023-02-21T05:39:11;100990.63;;;9.62;100.00
14269;BME280;7218;51.480;7.006;2023-02-21T05:41:38;100994.16;;;9.48;100.00
14269;BME280;7218;51.480;7.006;2023-02-21T05:44:04;100989.78;;;9.61;100.00
14269;BME280;7218;51.480;7.006;2023-02-21T05:46:32;100987.13;;;9.69;100.00
14269;BME280;7218;51.480;7.006;2023-02-21T05:49:00;101000.22;;;9.49;100.00
14269;BME280;7218;51.480;7.006;2023-02-21T05:51:33;100988.91;;;9.51;100.00
14269;BME280;7218;51.480;7.006;2023-02-21T05:53:59;100990.69;;;9.43;100.00
14269;BME280;7218;51.480;7.006;2023-02-21T05:56:27;100986.41;;;9.36;100.00
14269;BME280;7218;51.480;7.006;2023-02-21T05:58:54;100983.59;;;9.83;100.00
14269;BME280;7218;51.480;7.006;2023-02-21T06:01:20;100988.09;;;9.49;100.00
14269;BME280;7218;51.480;7.006;2023-02-21T06:03:46;100992.38;;;9.57;100.00
14269;BME280;7218;51.480;7.006;2023-02-21T06:06:13;100988.84;;;9.76;100.00
14269;BME280;7218;51.480;7.006;2023-02-21T06:08:46;100989.66;;;9.85;100.00
14269;BME280;7218;51.480;7.006;2023-02-21T06:11:22;100994.06;;;9.70;100.00
14269;BME280;7218;51.480;7.006;2023-02-21T06:13:50;100997.50;;;9.81;100.00
14269;BME280;7218;51.480;7.006;2023-02-21T06:16:17;101002.94;;;9.11;100.00
14269;BME280;7218;51.480;7.006;2023-02-21T06:18:44;100996.78;;;9.32;100.00
14269;BME280;7218;51.480;7.006;2023-02-21T06:21:10;100989.00;;;9.32;100.00
14269;BME280;7218;51.480;7.006;2023-02-21T06:23:36;100991.53;;;9.55;100.00
14269;BME280;7218;51.480;7.006;2023-02-21T06:26:03;100983.81;;;9.27;100.00
14269;BME280;7218;51.480;7.006;2023-02-21T06:28:30;100977.59;;;9.65;100.00
14269;BME280;7218;51.480;7.006;2023-02-21T06:30:58;100982.75;;;9.75;100.00
14269;BME280;7218;51.480;7.006;2023-02-21T06:33:25;100988.75;;;9.86;100.00
14269;BME280;7218;51.480;7.006;2023-02-21T06:35:51;100987.22;;;9.47;100.00
14269;BME280;7218;51.480;7.006;2023-02-21T06:38:18;100983.69;;;9.62;100.00
14269;BME280;7218;51.480;7.006;2023-02-21T06:40:44;100980.09;;;9.89;100.00
14269;BME280;7218;51.480;7.006;2023-02-21T06:43:10;100983.84;;;9.12;100.00
14269;BME280;7218;51.480;7.006;2023-02-21T06:45:37;100987.16;;;9.57;100.00
14269;BME280;7218;51.480;7.006;2023-02-21T06:48:05;100987.28;;;9.22;100.00
14269;BME280;7218;51.480;7.006;2023-02-21T06:50:32;100987.34;;;8.93;100.00
14269;BME280;7218;51.480;7.006;2023-02-21T06:52:59;100976.72;;;9.64;100.00
14269;BME280;7218;51.480;7.006;2023-02-21T06:55:25;100987.22;;;9.47;100.00
14269;BME280;7218;51.480;7.006;2023-02-21T06:57:52;100980.38;;;9.10;100.00
14269;BME280;7218;51.480;7.006;2023-02-21T07:00:19;100982.66;;;9.95;100.00
14269;BME280;7218;51.480;7.006;2023-02-21T07:02:45;100989.75;;;9.66;100.00
14269;BME280;7218;51.480;7.006;2023-02-21T07:05:13;100994.25;;;9.03;100.00
14269;BME280;7218;51.480;7.006;2023-02-21T07:07:40;100995.16;;;8.75;100.00
14269;BME280;7218;51.480;7.006;2023-02-21T07:10:07;100989.03;;;9.21;100.00
14269;BME280;7218;51.480;7.006;2023-02-21T07:12:33;100990.78;;;9.19;100.00
14269;BME280;7218;51.480;7.006;2023-02-21T07:15:00;100990.72;;;9.37;100.00
14269;BME280;7218;51.480;7.006;2023-02-21T07:17:26;101000.25;;;9.38;100.00
14269;BME280;7218;51.480;7.006;2023-02-21T07:19:53;100997.69;;;9.23;100.00
14269;BME280;7218;51.480;7.006;2023-02-21T07:22:20;101004.69;;;8.88;100.00
14269;BME280;7218;51.480;7.006;2023-02-21T07:24:50;101005.56;;;8.49;100.00
14269;BME280;7218;51.480;7.006;2023-02-21T07:27:17;101003.84;;;8.84;100.00
14269;BME280;7218;51.480;7.006;2023-02-21T07:29:45;101011.56;;;9.22;100.00
14269;BME280;7218;51.480;7.006;2023-02-21T07:32:11;100991.66;;;9.14;100.00
14269;BME280;7218;51.480;7.006;2023-02-21T07:34:38;100998.63;;;8.89;100.00
14269;BME280;7218;51.480;7.006;2023-02-21T07:37:04;100989.94;;;8.87;100.00
14269;BME280;7218;51.480;7.006;2023-02-21T07:39:32;100997.75;;;8.87;100.00
14269;BME280;7218;51.480;7.006;2023-02-21T07:41:59;101000.34;;;8.94;100.00
14269;BME280;7218;51.480;7.006;2023-02-21T07:44:25;101002.06;;;9.15;100.00
14269;BME280;7218;51.480;7.006;2023-02-21T07:46:52;101007.31;;;8.63;100.00
14269;BME280;7218;51.480;7.006;2023-02-21T07:49:20;101002.97;;;8.84;100.00
14269;BME280;7218;51.480;7.006;2023-02-21T07:51:46;100996.03;;;8.75;100.00
14269;BME280;7218;51.480;7.006;2023-02-21T07:54:13;101008.16;;;8.43;100.00
14269;BME280;7218;51.480;7.006;2023-02-21T07:56:43;100997.78;;;8.59;100.00
14269;BME280;7218;51.480;7.006;2023-02-21T07:59:09;101009.88;;;9.06;100.00
14269;BME280;7218;51.480;7.006;2023-02-21T08:01:36;101010.78;;;8.96;100.00
14269;BME280;7218;51.480;7.006;2023-02-21T08:04:02;101004.72;;;8.76;100.00
14269;BME280;7218;51.480;7.006;2023-02-21T08:06:29;101010.75;;;8.47;100.00
14269;BME280;7218;51.480;7.006;2023-02-21T08:08:56;100996.91;;;8.54;100.00
14269;BME280;7218;51.480;7.006;2023-02-21T08:11:22;101004.66;;;9.21;100.00
14269;BME280;7218;51.480;7.006;2023-02-21T08:13:50;101013.38;;;8.50;100.00
14269;BME280;7218;51.480;7.006;2023-02-21T08:16:16;101014.19;;;9.21;100.00
14269;BME280;7218;51.480;7.006;2023-02-21T08:18:46;101013.34;;;8.99;100.00
14269;BME280;7218;51.480;7.006;2023-02-21T08:21:14;101011.59;;;9.02;100.00
14269;BME280;7218;51.480;7.006;2023-02-21T08:23:40;101019.41;;;8.57;100.00
14269;BME280;7218;51.480;7.006;2023-02-21T08:26:07;101014.22;;;8.72;100.00
14269;BME280;7218;51.480;7.006;2023-02-21T08:28:33;101029.00;;;8.72;100.00
14269;BME280;7218;51.480;7.006;2023-02-21T08:31:02;101028.97;;;8.66;100.00
14269;BME280;7218;51.480;7.006;2023-02-21T08:33:29;101028.09;;;8.77;100.00
14269;BME280;7218;51.480;7.006;2023-02-21T08:35:55;101030.69;;;8.59;100.00
14269;BME280;7218;51.480;7.006;2023-02-21T08:38:22;101022.03;;;8.55;100.00
14269;BME280;7218;51.480;7.006;2023-02-21T08:40:48;101025.50;;;8.91;100.00
14269;BME280;7218;51.480;7.006;2023-02-21T08:43:15;101028.09;;;9.09;100.00
14269;BME280;7218;51.480;7.006;2023-02-21T08:45:42;101020.25;;;9.18;100.00
14269;BME280;7218;51.480;7.006;2023-02-21T08:48:09;101019.41;;;8.77;100.00
14269;BME280;7218;51.480;7.006;2023-02-21T08:50:36;101021.16;;;8.69;100.00
14269;BME280;7218;51.480;7.006;2023-02-21T08:53:02;101015.97;;;8.67;100.00
14269;BME280;7218;51.480;7.006;2023-02-21T08:55:29;101021.19;;;8.70;100.00
14269;BME280;7218;51.480;7.006;2023-02-21T08:57:56;101010.69;;;8.23;100.00
14269;BME280;7218;51.480;7.006;2023-02-21T09:00:23;101011.63;;;8.49;100.00
14269;BME280;7218;51.480;7.006;2023-02-21T09:02:53;101009.91;;;8.67;100.00
14269;BME280;7218;51.480;7.006;2023-02-21T09:05:24;101009.03;;;8.57;100.00
14269;BME280;7218;51.480;7.006;2023-02-21T09:07:51;101013.28;;;8.06;100.00
14269;BME280;7218;51.480;7.006;2023-02-21T09:10:20;101013.34;;;8.38;100.00
14269;BME280;7218;51.480;7.006;2023-02-21T09:12:46;101005.56;;;8.53;100.00
14269;BME280;7218;51.480;7.006;2023-02-21T09:15:13;100996.91;;;8.68;100.00
14269;BME280;7218;51.480;7.006;2023-02-21T09:17:40;101002.09;;;8.77;100.00
14269;BME280;7218;51.480;7.006;2023-02-21T09:20:09;100996.91;;;8.56;100.00
14269;BME280;7218;51.480;7.006;2023-02-21T09:22:38;100990.84;;;8.80;100.00
14269;BME280;7218;51.480;7.006;2023-02-21T09:25:04;100991.63;;;9.12;100.00
14269;BME280;7218;51.480;7.006;2023-02-21T09:27:31;100999.47;;;8.82;100.00
14269;BME280;7218;51.480;7.006;2023-02-21T09:30:04;100997.69;;;9.23;100.00
14269;BME280;7218;51.480;7.006;2023-02-21T09:32:30;100997.44;;;9.87;100.00
14269;BME280;7218;51.480;7.006;2023-02-21T09:34:57;100997.59;;;9.61;100.00
14269;BME280;7218;51.480;7.006;2023-02-21T09:37:24;101002.91;;;9.13;100.00
14269;BME280;7218;51.480;7.006;2023-02-21T09:39:52;100996.72;;;9.58;100.00
14269;BME280;7218;51.480;7.006;2023-02-21T09:42:21;100997.47;;;9.84;100.00
14269;BME280;7218;51.480;7.006;2023-02-21T09:44:50;100989.91;;;9.19;100.00
14269;BME280;7218;51.480;7.006;2023-02-21T09:47:25;100993.38;;;9.13;100.00
14269;BME280;7218;51.480;7.006;2023-02-21T09:49:58;101002.94;;;9.11;100.00
14269;BME280;7218;51.480;7.006;2023-02-21T09:52:30;100994.22;;;9.27;100.00
14269;BME280;7218;51.480;7.006;2023-02-21T09:55:02;100995.16;;;8.87;100.00
14269;BME280;7218;51.480;7.006;2023-02-21T09:57:30;100995.97;;;9.24;100.00
14269;BME280;7218;51.480;7.006;2023-02-21T09:59:57;101004.66;;;8.97;100.00
14269;BME280;7218;51.480;7.006;2023-02-21T10:02:35;100999.41;;;9.33;100.00
14269;BME280;7218;51.480;7.006;2023-02-21T10:05:16;101001.25;;;8.80;100.00
14269;BME280;7218;51.480;7.006;2023-02-21T10:07:46;100997.69;;;9.31;100.00
14269;BME280;7218;51.480;7.006;2023-02-21T10:10:19;101002.06;;;9.07;100.00
14269;BME280;7218;51.480;7.006;2023-02-21T10:12:51;100989.88;;;9.23;100.00
14269;BME280;7218;51.480;7.006;2023-02-21T10:15:40;100988.00;;;9.71;100.00
14269;BME280;7218;51.480;7.006;2023-02-21T10:18:18;100995.75;;;9.80;100.00
14269;BME280;7218;51.480;7.006;2023-02-21T10:20:50;100994.91;;;9.73;100.00
14269;BME280;7218;51.480;7.006;2023-02-21T10:23:21;100987.94;;;9.84;100.00
14269;BME280;7218;51.480;7.006;2023-02-21T10:25:53;100994.78;;;9.98;100.00
14269;BME280;7218;51.480;7.006;2023-02-21T10:28:22;100999.06;;;10.11;100.00
14269;BME280;7218;51.480;7.006;2023-02-21T10:30:51;100999.88;;;10.22;100.00
14269;BME280;7218;51.480;7.006;2023-02-21T10:33:19;100997.31;;;10.13;100.00
14269;BME280;7218;51.480;7.006;2023-02-21T10:35:46;100995.66;;;9.98;100.00
14269;BME280;7218;51.480;7.006;2023-02-21T10:38:15;101005.56;;;9.06;100.00
14269;BME280;7218;51.480;7.006;2023-02-21T10:40:44;101001.16;;;9.22;100.00
14269;BME280;7218;51.480;7.006;2023-02-21T10:43:17;100993.28;;;9.51;100.00
14269;BME280;7218;51.480;7.006;2023-02-21T10:45:50;100999.13;;;9.97;100.00
14269;BME280;7218;51.480;7.006;2023-02-21T10:48:19;101002.72;;;9.78;100.00
14269;BME280;7218;51.480;7.006;2023-02-21T10:50:51;100997.19;;;10.40;100.00
14269;BME280;7218;51.480;7.006;2023-02-21T10:53:24;101001.63;;;10.24;100.00
14269;BME280;7218;51.480;7.006;2023-02-21T10:56:07;101010.50;;;9.85;100.00
14269;BME280;7218;51.480;7.006;2023-02-21T10:58:35;101001.69;;;10.06;100.00
14269;BME280;7218;51.480;7.006;2023-02-21T11:01:11;101004.41;;;9.82;100.00
14269;BME280;7218;51.480;7.006;2023-02-21T11:03:42;101001.97;;;9.48;100.00
14269;BME280;7218;51.480;7.006;2023-02-21T11:06:22;101003.41;;;10.21;100.00
14269;BME280;7218;51.480;7.006;2023-02-21T11:08:49;101005.13;;;10.17;100.00
14269;BME280;7218;51.480;7.006;2023-02-21T11:11:30;100996.44;;;10.12;100.00
14269;BME280;7218;51.480;7.006;2023-02-21T11:14:18;100994.81;;;9.93;100.00
14269;BME280;7218;51.480;7.006;2023-02-21T11:17:03;100991.31;;;9.97;100.00
14269;BME280;7218;51.480;7.006;2023-02-21T11:19:41;100996.44;;;10.18;100.00
14269;BME280;7218;51.480;7.006;2023-02-21T11:22:07;100994.47;;;10.54;100.00
14269;BME280;7218;51.480;7.006;2023-02-21T11:24:44;100994.06;;;9.76;100.00
14269;BME280;7218;51.480;7.006;2023-02-21T11:27:11;100989.59;;;9.99;100.00
14269;BME280;7218;51.480;7.006;2023-02-21T11:29:41;100984.19;;;10.32;100.00
14269;BME280;7218;51.480;7.006;2023-02-21T11:32:11;100990.16;;;10.50;100.00
14269;BME280;7218;51.480;7.006;2023-02-21T11:34:39;100980.75;;;10.27;100.00
14269;BME280;7218;51.480;7.006;2023-02-21T11:37:13;100980.03;;;10.01;100.00
14269;BME280;7218;51.480;7.006;2023-02-21T11:39:39;100980.19;;;10.94;100.00
14269;BME280;7218;51.480;7.006;2023-02-21T11:42:24;100976.13;;;10.63;100.00
14269;BME280;7218;51.480;7.006;2023-02-21T11:45:09;100975.94;;;10.84;100.00
14269;BME280;7218;51.480;7.006;2023-02-21T11:47:42;100973.59;;;10.52;100.00
14269;BME280;7218;51.480;7.006;2023-02-21T11:50:14;100975.28;;;10.58;100.00
14269;BME280;7218;51.480;7.006;2023-02-21T11:52:46;100975.22;;;10.68;100.00
14269;BME280;7218;51.480;7.006;2023-02-21T11:55:17;100974.47;;;10.54;100.00
14269;BME280;7218;51.480;7.006;2023-02-21T11:57:51;100965.69;;;10.63;100.00
14269;BME280;7218;51.480;7.006;2023-02-21T12:00:25;100962.38;;;10.44;100.00
14269;BME280;7218;51.480;7.006;2023-02-21T12:03:15;100952.59;;;10.67;100.00
14269;BME280;7218;51.480;7.006;2023-02-21T12:05:52;100953.91;;;11.12;100.00
14269;BME280;7218;51.480;7.006;2023-02-21T12:08:33;100945.78;;;11.37;100.00
14269;BME280;7218;51.480;7.006;2023-02-21T12:11:11;100947.75;;;11.19;100.00
14269;BME280;7218;51.480;7.006;2023-02-21T12:13:47;100953.78;;;11.25;100.00
14269;BME280;7218;51.480;7.006;2023-02-21T12:16:26;100961.88;;;11.00;100.00
14269;BME280;7218;51.480;7.006;2023-02-21T12:19:09;100949.81;;;10.87;100.00
14269;BME280;7218;51.480;7.006;2023-02-21T12:22:00;100955.63;;;11.15;100.00
14269;BME280;7218;51.480;7.006;2023-02-21T12:24:41;100948.00;;;10.92;100.00
14269;BME280;7218;51.480;7.006;2023-02-21T12:27:16;100946.47;;;10.74;100.00
14269;BME280;7218;51.480;7.006;2023-02-21T12:30:00;100940.94;;;11.03;100.00
14269;BME280;7218;51.480;7.006;2023-02-21T12:32:43;100929.34;;;11.29;100.00
14269;BME280;7218;51.480;7.006;2023-02-21T12:35:32;100919.72;;;11.34;100.00
14269;BME280;7218;51.480;7.006;2023-02-21T12:38:04;100921.53;;;11.27;100.00
14269;BME280;7218;51.480;7.006;2023-02-21T12:40:38;100926.63;;;10.58;100.00
14269;BME280;7218;51.480;7.006;2023-02-21T12:43:25;100917.78;;;10.73;100.00
14269;BME280;7218;51.480;7.006;2023-02-21T12:45:58;100925.28;;;11.05;100.00
14269;BME280;7218;51.480;7.006;2023-02-21T12:48:32;100923.19;;;10.55;100.00
14269;BME280;7218;51.480;7.006;2023-02-21T12:51:05;100916.75;;;10.88;100.00
14269;BME280;7218;51.480;7.006;2023-02-21T12:53:39;100914.84;;;11.03;100.00
14269;BME280;7218;51.480;7.006;2023-02-21T12:56:11;100907.22;;;10.85;100.00
14269;BME280;7218;51.480;7.006;2023-02-21T12:58:42;100903.19;;;11.33;100.00
14269;BME280;7218;51.480;7.006;2023-02-21T13:01:14;100902.50;;;11.20;100.00
14269;BME280;7218;51.480;7.006;2023-02-21T13:03:52;100894.19;;;11.55;99.01
14269;BME280;7218;51.480;7.006;2023-02-21T13:06:25;100889.88;;;11.51;98.35
14269;BME280;7218;51.480;7.006;2023-02-21T13:09:01;100891.78;;;11.40;98.83
14269;BME280;7218;51.480;7.006;2023-02-21T13:11:34;100891.31;;;11.77;97.25
14269;BME280;7218;51.480;7.006;2023-02-21T13:14:09;100889.13;;;11.45;98.00
14269;BME280;7218;51.480;7.006;2023-02-21T13:16:36;100885.91;;;11.23;99.19
14269;BME280;7218;51.480;7.006;2023-02-21T13:19:08;100880.34;;;11.50;98.02
14269;BME280;7218;51.480;7.006;2023-02-21T13:21:49;100874.91;;;10.98;100.00
14269;BME280;7218;51.480;7.006;2023-02-21T13:24:42;100875.19;;;10.72;100.00
14269;BME280;7218;51.480;7.006;2023-02-21T13:27:33;100873.03;;;11.09;100.00
14269;BME280;7218;51.480;7.006;2023-02-21T13:30:12;100868.22;;;11.43;99.21